Terminal Aerodrome Forecast
Issued by NWS

Home | Current Version | Previous Version | Text Only | Print | Product List | Glossary Off
Versions: 1 2 3 4 5 6 7 8 9 10 11 12 13 14 15 16 17

000
FTUS43 KMPX 162339
TAFRWF
TAF
KRWF 162339Z 1700/1724 VRB04KT 4SM BR SCT005 BKN015
      TEMPO 1700/1704 2SM -FZRASN BR OVC005
     FM170400 33006KT 2SM BR OVC003
     FM170800 32007KT 5SM BR BKN008
     FM171200 31007KT P6SM SCT010
     FM171800 25006KT P6SM SCT150=

USA.gov is the U.S. government's official web portal to all federal, state and local government web resources and services.